sensor_id;sensor_type;location;lat;lon;timestamp;pressure;altitude;pressure_sealevel;temperature;humidity
47712;BME280;57457;51.634;5.886;2023-05-22T07:29:34;101200;;;16.3;87.4
47712;BME280;57457;51.634;5.886;2023-05-22T07:52:50;101200;;;16.5;87.6
47712;BME280;57457;51.634;5.886;2023-05-22T08:12:03;101200;;;16.6;87.2
47712;BME280;57457;51.634;5.886;2023-05-22T08:34:20;101200;;;16.9;85.9
47712;BME280;57457;51.634;5.886;2023-05-22T08:58:08;101200;;;17.6;83.1
47712;BME280;57457;51.634;5.886;2023-05-22T09:18:29;101200;;;18.7;80.7
47712;BME280;57457;51.634;5.886;2023-05-22T09:35:42;101200;;;20.0;78.4
47712;BME280;57457;51.634;5.886;2023-05-22T09:52:04;101200;;;21.2;77.4
47712;BME280;57457;51.634;5.886;2023-05-22T10:10:49;101200;;;22.6;74.2
47712;BME280;57457;51.634;5.886;2023-05-22T10:28:02;101200;;;23.5;68.8
47712;BME280;57457;51.634;5.886;2023-05-22T10:42:44;101200;;;24.4;70.7
47712;BME280;57457;51.634;5.886;2023-05-22T10:56:51;101200;;;25.0;68.4
47712;BME280;57457;51.634;5.886;2023-05-22T11:10:48;101200;;;25.5;65.9
47712;BME280;57457;51.634;5.886;2023-05-22T11:25:50;101200;;;25.8;63.4
47712;BME280;57457;51.634;5.886;2023-05-22T12:01:09;101200;;;27.0;64.4
47712;BME280;57457;51.634;5.886;2023-05-22T12:18:34;101200;;;27.4;60.0
47712;BME280;57457;51.634;5.886;2023-05-22T12:33:42;101200;;;27.7;55.8
47712;BME280;57457;51.634;5.886;2023-05-22T12:47:26;101200;;;27.6;56.5
47712;BME280;57457;51.634;5.886;2023-05-22T13:02:53;101200;;;27.8;57.7
47712;BME280;57457;51.634;5.886;2023-05-22T13:19:50;101100;;;27.8;62.1
47712;BME280;57457;51.634;5.886;2023-05-22T13:35:26;101100;;;27.7;61.6
47712;BME280;57457;51.634;5.886;2023-05-22T13:50:18;101100;;;27.6;59.6
47712;BME280;57457;51.634;5.886;2023-05-22T14:06:21;101100;;;27.7;62.7
47712;BME280;57457;51.634;5.886;2023-05-22T14:21:03;101100;;;27.5;59.2
47712;BME280;57457;51.634;5.886;2023-05-22T14:54:32;101100;;;27.3;62.4
47712;BME280;57457;51.634;5.886;2023-05-22T15:15:14;101100;;;27.3;65.2
47712;BME280;57457;51.634;5.886;2023-05-22T15:30:18;101100;;;26.9;71.3
47712;BME280;57457;51.634;5.886;2023-05-22T15:44:49;101200;;;25.7;68.9
47712;BME280;57457;51.634;5.886;2023-05-22T15:59:15;101200;;;24.7;70.8
47712;BME280;57457;51.634;5.886;2023-05-22T16:31:02;101200;;;22.9;80.3
47712;BME280;57457;51.634;5.886;2023-05-22T16:51:40;101200;;;22.2;81.5
47712;BME280;57457;51.634;5.886;2023-05-22T17:11:53;101200;;;21.6;78.5
47712;BME280;57457;51.634;5.886;2023-05-22T17:29:21;101200;;;21.5;75.2
47712;BME280;57457;51.634;5.886;2023-05-22T17:43:32;101200;;;21.5;71.8
47712;BME280;57457;51.634;5.886;2023-05-22T18:01:01;101200;;;21.3;72.6
47712;BME280;57457;51.634;5.886;2023-05-22T18:50:40;101300;;;20.7;72.9
47712;BME280;57457;51.634;5.886;2023-05-22T19:08:48;101300;;;20.2;76.6
47712;BME280;57457;51.634;5.886;2023-05-22T19:36:25;101300;;;19.6;78.8
47712;BME280;57457;51.634;5.886;2023-05-22T20:21:55;101300;;;19.0;82.0
47712;BME280;57457;51.634;5.886;2023-05-22T21:00:25;101500;;;15.9;83.4
47712;BME280;57457;51.634;5.886;2023-05-22T21:32:11;101500;;;15.9;83.3
47712;BME280;57457;51.634;5.886;2023-05-22T22:04:22;101500;;;15.8;84.1
47712;BME280;57457;51.634;5.886;2023-05-22T22:24:03;101500;;;16.1;83.6
